createdAt,value
2022-09-03T00:06:21.025Z,2.80
2022-09-03T00:12:31.976Z,2.83
2022-09-03T00:15:04.321Z,3.05
2022-09-03T00:17:36.727Z,3.58
2022-09-03T00:20:08.611Z,4.90
2022-09-03T00:22:42.143Z,4.25
2022-09-03T00:25:57.284Z,4.72
2022-09-03T00:29:17.864Z,4.68
2022-09-03T00:35:32.772Z,6.95
2022-09-03T00:42:07.039Z,6.43
2022-09-03T00:44:48.589Z,5.80
2022-09-03T00:47:25.163Z,5.28
2022-09-03T00:50:03.274Z,4.03
2022-09-03T00:52:40.346Z,4.30
2022-09-03T00:55:15.799Z,5.40
2022-09-03T00:58:33.676Z,3.08
2022-09-03T01:01:20.671Z,3.22
2022-09-03T01:07:37.091Z,4.13
2022-09-03T01:10:15.414Z,4.60
2022-09-03T01:12:49.120Z,4.47
2022-09-03T01:15:28.903Z,3.00
2022-09-03T01:26:16.691Z,2.95
2022-09-03T01:46:00.633Z,5.47
2022-09-03T01:54:08.522Z,3.10
2022-09-03T02:01:49.958Z,3.85
2022-09-03T02:04:23.867Z,3.83
2022-09-03T02:06:53.551Z,3.97
2022-09-03T02:15:47.812Z,4.47
2022-09-03T02:22:52.424Z,4.00
2022-09-03T02:25:22.224Z,5.68
2022-09-03T02:31:44.034Z,4.85
2022-09-03T02:34:42.625Z,5.53
2022-09-03T02:37:16.409Z,6.05
2022-09-03T02:39:48.800Z,5.55
2022-09-03T02:43:20.705Z,4.60
2022-09-03T02:46:05.836Z,5.20
2022-09-03T02:49:38.040Z,5.18
2022-09-03T02:52:15.253Z,6.63
2022-09-03T03:03:01.260Z,5.20
2022-09-03T03:05:46.427Z,4.53
2022-09-03T03:08:44.431Z,6.05
2022-09-03T03:11:13.945Z,7.13
2022-09-03T03:13:42.856Z,5.80
2022-09-03T03:16:12.287Z,6.70
2022-09-03T03:22:00.327Z,4.78
2022-09-03T03:24:29.437Z,4.50
2022-09-03T03:26:59.535Z,6.75
2022-09-03T03:29:28.592Z,5.57
2022-09-03T03:31:58.269Z,7.03
2022-09-03T03:34:27.543Z,5.57
2022-09-03T03:42:35.898Z,8.55
2022-09-03T03:45:07.966Z,5.43
2022-09-03T03:49:04.932Z,3.85
2022-09-03T03:51:34.282Z,4.20
2022-09-03T03:55:35.186Z,6.53
2022-09-03T04:02:27.320Z,4.72
2022-09-03T04:09:49.577Z,5.13
2022-09-03T04:17:02.595Z,4.32
2022-09-03T04:19:33.224Z,5.15
2022-09-03T04:26:23.168Z,4.15
2022-09-03T04:28:52.582Z,4.93
2022-09-03T04:31:22.761Z,3.30
2022-09-03T04:34:20.096Z,4.65
2022-09-03T04:36:52.913Z,4.00
2022-09-03T04:40:23.083Z,7.00
2022-09-03T04:42:52.718Z,4.93
2022-09-03T04:45:21.680Z,3.95
2022-09-03T04:48:51.721Z,4.72
2022-09-03T04:55:36.493Z,3.53
2022-09-03T05:08:06.456Z,3.03
2022-09-03T05:10:38.191Z,3.05
2022-09-03T05:13:08.088Z,4.78
2022-09-03T05:16:34.000Z,4.07
2022-09-03T05:20:27.745Z,2.97
2022-09-03T05:22:57.209Z,4.80
2022-09-03T05:25:26.372Z,4.70
2022-09-03T05:32:39.586Z,3.42
2022-09-03T05:35:11.319Z,3.35
2022-09-03T05:41:58.166Z,3.72
2022-09-03T05:53:03.674Z,3.45
2022-09-03T05:56:02.289Z,3.83
2022-09-03T05:58:50.230Z,3.83
2022-09-03T06:01:20.567Z,4.70
2022-09-03T06:03:54.603Z,3.25
2022-09-03T06:06:26.231Z,4.22
2022-09-03T06:08:58.362Z,4.93
2022-09-03T06:11:57.375Z,5.03
2022-09-03T06:14:27.596Z,3.97
2022-09-03T06:17:53.435Z,4.75
2022-09-03T06:20:55.318Z,3.42
2022-09-03T06:23:24.395Z,4.18
2022-09-03T06:26:05.427Z,3.38
2022-09-03T06:28:40.858Z,3.63
2022-09-03T06:31:11.843Z,4.05
2022-09-03T06:33:42.850Z,2.70
2022-09-03T06:36:13.632Z,2.88
2022-09-03T06:38:43.253Z,4.18
2022-09-03T06:43:46.684Z,2.17
2022-09-03T06:46:18.035Z,2.97
2022-09-03T06:49:15.831Z,3.53
2022-09-03T06:51:45.500Z,2.78
2022-09-03T06:56:46.836Z,2.33
2022-09-03T06:59:25.285Z,2.38
2022-09-03T07:01:55.419Z,1.60
2022-09-03T07:04:25.131Z,3.13
2022-09-03T07:06:54.307Z,2.30
2022-09-03T07:09:23.385Z,3.35
2022-09-03T07:11:54.477Z,2.55
2022-09-03T07:14:24.869Z,2.35
2022-09-03T07:21:22.303Z,1.25
2022-09-03T07:23:53.421Z,2.38
2022-09-03T07:26:24.771Z,1.58
2022-09-03T07:28:56.976Z,1.00
2022-09-03T07:31:28.781Z,1.05
2022-09-03T07:33:59.025Z,1.48
2022-09-03T07:36:35.514Z,0.60
2022-09-03T07:39:05.370Z,1.95
2022-09-03T07:41:35.114Z,1.10
2022-09-03T07:44:06.966Z,2.17
2022-09-03T07:46:39.357Z,2.17
2022-09-03T07:49:09.778Z,1.88
2022-09-03T07:51:40.459Z,2.33
2022-09-03T07:54:11.783Z,2.05
2022-09-03T07:56:41.763Z,1.85
2022-09-03T07:59:13.122Z,2.25
2022-09-03T08:01:42.660Z,1.80
2022-09-03T08:06:42.388Z,1.90
2022-09-03T08:09:14.075Z,2.10
2022-09-03T08:11:44.979Z,1.70
2022-09-03T08:14:16.914Z,2.25
2022-09-03T08:16:48.784Z,2.67
2022-09-03T08:19:18.777Z,1.98
2022-09-03T08:21:49.058Z,1.67
2022-09-03T08:24:19.337Z,2.22
2022-09-03T08:26:52.090Z,3.08
2022-09-03T08:29:23.241Z,1.42
2022-09-03T08:31:52.678Z,2.60
2022-09-03T08:36:50.613Z,2.03
2022-09-03T08:39:20.185Z,2.10
2022-09-03T08:42:28.348Z,3.10
2022-09-03T08:45:02.799Z,2.30
2022-09-03T08:47:38.425Z,1.63
2022-09-03T08:50:12.923Z,1.75
2022-09-03T08:52:50.141Z,1.65
2022-09-03T08:55:25.147Z,1.10
2022-09-03T08:58:02.246Z,1.65
2022-09-03T09:00:48.523Z,1.58
2022-09-03T09:03:35.059Z,2.25
2022-09-03T09:06:13.422Z,1.95
2022-09-03T09:08:53.407Z,0.70
2022-09-03T09:11:33.380Z,0.40
2022-09-03T09:14:07.032Z,3.60
2022-09-03T09:16:47.598Z,1.35
2022-09-03T09:19:37.229Z,2.03
2022-09-03T09:22:12.204Z,2.15
2022-09-03T09:24:45.151Z,0.82
2022-09-03T09:27:17.435Z,0.65
2022-09-03T09:29:51.818Z,4.50
2022-09-03T09:32:22.709Z,3.22
2022-09-03T09:34:52.667Z,0.47
2022-09-03T09:38:26.404Z,0.77
2022-09-03T09:40:57.330Z,0.50
2022-09-03T09:43:26.310Z,1.10
2022-09-03T09:45:55.799Z,0.65
2022-09-03T09:49:29.385Z,2.50
2022-09-03T09:52:18.846Z,0.57
2022-09-03T10:00:09.061Z,0.57
2022-09-03T10:02:42.530Z,1.00
2022-09-03T10:05:17.026Z,1.08
2022-09-03T10:07:59.704Z,1.65
2022-09-03T10:10:35.713Z,1.00
2022-09-03T10:13:10.748Z,2.40
2022-09-03T10:15:46.586Z,0.50
2022-09-03T10:18:29.709Z,0.85
2022-09-03T10:21:06.897Z,0.57
2022-09-03T10:23:51.674Z,1.48
2022-09-03T10:26:32.368Z,0.80
2022-09-03T10:29:22.091Z,0.88
2022-09-03T10:32:24.495Z,1.13
2022-09-03T10:35:22.972Z,2.20
2022-09-03T11:01:54.501Z,1.55
2022-09-03T11:04:30.452Z,2.13
2022-09-03T11:07:09.361Z,1.10
2022-09-03T11:09:42.674Z,1.85
2022-09-03T11:12:17.945Z,4.03
2022-09-03T11:14:51.603Z,1.65
2022-09-03T11:17:26.616Z,0.98
2022-09-03T11:20:00.718Z,0.98
2022-09-03T11:22:30.985Z,0.25
2022-09-03T11:25:03.756Z,1.08
2022-09-03T11:27:56.939Z,1.60
2022-09-03T11:30:26.845Z,1.08
2022-09-03T11:33:00.080Z,0.70
2022-09-03T11:35:31.545Z,1.95
2022-09-03T11:38:01.934Z,1.20
2022-09-03T11:40:32.213Z,1.23
2022-09-03T11:43:08.126Z,0.77
2022-09-03T11:45:39.012Z,1.38
2022-09-03T11:48:25.996Z,1.33
2022-09-03T11:50:57.442Z,1.10
2022-09-03T11:53:30.310Z,1.40
2022-09-03T11:56:02.321Z,0.25
2022-09-03T11:58:33.039Z,0.73
2022-09-03T12:01:02.454Z,1.35
2022-09-03T12:06:13.101Z,2.63
2022-09-03T12:08:54.027Z,0.68
2022-09-03T12:11:30.630Z,1.00
2022-09-03T12:14:04.456Z,0.88
2022-09-03T12:16:40.678Z,3.17
2022-09-03T12:19:12.947Z,1.25
2022-09-03T12:21:44.509Z,0.95
2022-09-03T12:24:15.570Z,0.50
2022-09-03T12:26:45.438Z,0.88
2022-09-03T12:29:27.624Z,0.65
2022-09-03T12:31:57.752Z,0.68
2022-09-03T12:34:27.620Z,1.05
2022-09-03T12:36:57.901Z,1.13
2022-09-03T12:42:20.869Z,0.52
2022-09-03T12:44:49.962Z,1.60
2022-09-03T12:47:37.285Z,1.85
2022-09-03T12:50:09.148Z,1.85
2022-09-03T12:52:41.836Z,2.35
2022-09-03T12:55:15.134Z,1.27
2022-09-03T12:57:47.181Z,1.58
2022-09-03T13:00:18.950Z,0.88
2022-09-03T13:02:52.447Z,0.82
2022-09-03T13:05:24.137Z,1.17
2022-09-03T13:07:57.243Z,1.27
2022-09-03T13:10:30.423Z,0.52
2022-09-03T13:13:02.855Z,1.35
2022-09-03T13:15:32.176Z,0.82
2022-09-03T13:18:14.196Z,1.88
2022-09-03T13:20:54.183Z,1.90
2022-09-03T13:23:41.178Z,0.50
2022-09-03T13:26:23.388Z,0.57
2022-09-03T13:29:09.235Z,1.10
2022-09-03T13:31:42.140Z,1.08
2022-09-03T13:34:18.201Z,0.68
2022-09-03T13:36:51.931Z,0.35
2022-09-03T13:39:29.441Z,0.70
2022-09-03T13:42:07.432Z,1.50
2022-09-03T13:44:46.620Z,0.63
2022-09-03T13:47:27.812Z,0.77
2022-09-03T13:50:23.584Z,0.82
2022-09-03T13:52:59.396Z,1.23
2022-09-03T13:55:38.066Z,1.42
2022-09-03T13:58:13.453Z,1.17
2022-09-03T14:00:45.817Z,0.90
2022-09-03T14:03:26.548Z,0.80
2022-09-03T14:06:09.580Z,0.85
2022-09-03T14:08:58.697Z,1.13
2022-09-03T14:11:35.899Z,0.90
2022-09-03T14:14:15.389Z,1.63
2022-09-03T14:16:50.780Z,1.50
2022-09-03T14:19:28.623Z,2.65
2022-09-03T14:22:03.430Z,0.57
2022-09-03T14:24:41.270Z,1.73
2022-09-03T14:27:11.988Z,1.85
2022-09-03T14:29:51.597Z,1.63
2022-09-03T14:32:32.010Z,1.23
2022-09-03T14:35:29.277Z,0.95
2022-09-03T14:38:27.888Z,1.45
2022-09-03T14:41:08.078Z,1.38
2022-09-03T14:44:05.344Z,0.73
2022-09-03T14:46:55.931Z,0.63
2022-09-03T14:49:48.687Z,1.00
2022-09-03T14:52:44.787Z,1.00
2022-09-03T14:55:24.912Z,0.30
2022-09-03T14:58:17.800Z,3.00
2022-09-03T15:00:55.909Z,2.13
2022-09-03T15:03:50.824Z,2.30
2022-09-03T15:06:31.194Z,13.75
2022-09-03T15:09:24.353Z,18.42
2022-09-03T15:11:57.937Z,8.75
2022-09-03T15:14:31.345Z,4.30
2022-09-03T15:17:32.461Z,2.70
2022-09-03T15:20:18.160Z,2.30
2022-09-03T15:23:12.173Z,3.85
2022-09-03T15:26:17.920Z,4.18
2022-09-03T15:28:59.126Z,2.17
2022-09-03T15:31:39.315Z,1.35
2022-09-03T15:34:20.926Z,7.70
2022-09-03T15:36:54.020Z,4.90
2022-09-03T15:39:26.733Z,3.38
2022-09-03T15:42:00.471Z,1.42
2022-09-03T15:44:38.129Z,2.10
2022-09-03T15:47:14.276Z,2.65
2022-09-03T15:49:55.302Z,1.05
2022-09-03T15:52:33.740Z,1.23
2022-09-03T15:55:09.887Z,2.30
2022-09-03T15:57:47.541Z,0.70
2022-09-03T16:00:21.523Z,1.33
2022-09-03T16:02:59.161Z,0.82
2022-09-03T16:05:42.981Z,2.35
2022-09-03T16:08:21.050Z,0.57
2022-09-03T16:11:03.397Z,0.90
2022-09-03T16:13:47.234Z,3.25
2022-09-03T16:16:22.906Z,0.75
2022-09-03T16:19:01.240Z,1.45
2022-09-03T16:21:40.169Z,1.35
2022-09-03T16:24:19.606Z,1.27
2022-09-03T16:29:27.938Z,0.60
2022-09-03T16:32:19.544Z,1.70
2022-09-03T16:35:00.147Z,2.22
2022-09-03T16:37:36.617Z,1.20
2022-09-03T16:40:16.179Z,1.20
2022-09-03T16:42:52.181Z,0.70
2022-09-03T16:45:29.419Z,0.95
2022-09-03T16:48:14.825Z,0.28
2022-09-03T16:50:59.491Z,0.57
2022-09-03T16:53:41.129Z,1.88
2022-09-03T16:56:31.938Z,0.88
2022-09-03T16:59:10.590Z,1.23
2022-09-03T17:01:53.750Z,1.00
2022-09-03T17:04:49.639Z,0.30
2022-09-03T17:07:31.259Z,1.73
2022-09-03T17:10:11.112Z,1.92
2022-09-03T17:12:49.807Z,1.88
2022-09-03T17:15:36.919Z,1.42
2022-09-03T17:18:33.613Z,0.90
2022-09-03T17:21:22.014Z,0.52
2022-09-03T17:24:03.762Z,0.90
2022-09-03T17:26:41.796Z,0.77
2022-09-03T17:29:26.493Z,2.53
2022-09-03T17:32:03.327Z,0.63
2022-09-03T17:34:47.286Z,0.73
2022-09-03T17:37:28.787Z,1.35
2022-09-03T17:40:15.843Z,2.05
2022-09-03T17:42:56.276Z,1.73
2022-09-03T17:45:39.259Z,2.05
2022-09-03T17:48:25.983Z,0.60
2022-09-03T17:51:00.804Z,0.38
2022-09-03T17:53:38.631Z,0.77
2022-09-03T17:56:13.164Z,2.72
2022-09-03T17:58:50.736Z,0.93
2022-09-03T18:01:26.379Z,1.60
2022-09-03T18:03:57.420Z,3.20
2022-09-03T18:06:34.246Z,2.78
2022-09-03T18:09:08.593Z,0.82
2022-09-03T18:11:42.045Z,1.42
2022-09-03T18:14:25.913Z,1.92
2022-09-03T18:17:03.360Z,1.65
2022-09-03T18:19:55.784Z,1.08
2022-09-03T18:22:48.375Z,2.72
2022-09-03T18:25:36.291Z,1.77
2022-09-03T18:28:26.298Z,0.82
2022-09-03T18:31:14.695Z,0.82
2022-09-03T18:34:01.876Z,0.65
2022-09-03T18:36:50.781Z,1.73
2022-09-03T18:42:42.000Z,0.80
2022-09-03T18:46:07.938Z,0.63
2022-09-03T18:48:55.121Z,0.80
2022-09-03T18:51:50.105Z,0.40
2022-09-03T18:55:07.283Z,2.15
2022-09-03T18:58:05.445Z,1.80
2022-09-03T19:00:58.953Z,1.50
2022-09-03T19:04:02.554Z,0.88
2022-09-03T19:06:59.541Z,2.42
2022-09-03T19:10:00.192Z,0.95
2022-09-03T19:13:00.081Z,1.67
2022-09-03T19:15:53.613Z,2.78
2022-09-03T19:18:56.055Z,0.98
2022-09-03T19:21:50.729Z,0.85
2022-09-03T19:24:40.019Z,1.35
2022-09-03T19:30:40.725Z,0.60
2022-09-03T19:33:34.642Z,0.95
2022-09-03T19:36:30.204Z,0.98
2022-09-03T19:39:29.700Z,3.85
2022-09-03T19:42:23.562Z,0.45
2022-09-03T19:45:20.251Z,0.65
2022-09-03T19:48:21.836Z,0.95
2022-09-03T19:51:18.750Z,0.80
2022-09-03T19:54:07.854Z,1.08
2022-09-03T19:56:58.217Z,1.33
2022-09-03T19:59:54.945Z,1.10
2022-09-03T20:02:43.449Z,0.98
2022-09-03T20:05:34.980Z,1.83
2022-09-03T20:08:21.980Z,1.90
2022-09-03T20:10:57.167Z,1.35
2022-09-03T20:13:26.253Z,1.13
2022-09-03T20:16:03.026Z,2.55
2022-09-03T20:18:44.046Z,1.23
2022-09-03T20:21:20.645Z,1.05
2022-09-03T20:23:58.431Z,1.80
2022-09-03T20:26:42.191Z,1.50
2022-09-03T20:29:34.258Z,1.75
2022-09-03T20:32:13.005Z,1.30
2022-09-03T20:34:51.554Z,1.20
2022-09-03T20:37:28.449Z,1.27
2022-09-03T20:40:08.799Z,2.03
2022-09-03T20:43:00.986Z,0.90
2022-09-03T20:45:42.375Z,2.55
2022-09-03T20:48:23.917Z,3.85
2022-09-03T20:50:59.623Z,0.73
2022-09-03T20:53:49.738Z,1.08
2022-09-03T20:56:26.852Z,1.92
2022-09-03T20:59:05.416Z,10.70
2022-09-03T21:01:41.632Z,4.10
2022-09-03T21:04:31.500Z,3.80
2022-09-03T21:07:09.696Z,3.45
2022-09-03T21:09:42.916Z,5.25
2022-09-03T21:12:19.378Z,6.07
2022-09-03T21:14:56.008Z,5.88
2022-09-03T21:17:40.287Z,6.28
2022-09-03T21:20:18.397Z,6.80
2022-09-03T21:23:00.660Z,17.55
2022-09-03T21:25:34.794Z,10.40
2022-09-03T21:28:08.261Z,2.75
2022-09-03T21:30:43.393Z,1.83
2022-09-03T21:33:18.162Z,14.90
2022-09-03T21:35:53.326Z,4.18
2022-09-03T21:38:26.854Z,2.85
2022-09-03T21:41:01.544Z,3.13
2022-09-03T21:43:35.233Z,1.90
2022-09-03T21:46:10.218Z,3.38
2022-09-03T21:48:41.917Z,5.68
2022-09-03T21:51:16.466Z,4.38
2022-09-03T21:53:53.358Z,31.58
2022-09-03T21:56:44.989Z,47.80
2022-09-03T21:59:24.930Z,29.63
2022-09-03T22:02:02.144Z,27.30
2022-09-03T22:04:31.915Z,27.40
2022-09-03T22:07:09.172Z,12.90
2022-09-03T22:09:46.208Z,8.85
2022-09-03T22:12:21.951Z,7.63
2022-09-03T22:14:55.909Z,7.95
2022-09-03T22:17:44.069Z,7.28
2022-09-03T22:20:14.670Z,5.82
2022-09-03T22:22:48.489Z,8.85
2022-09-03T22:25:23.536Z,5.22
2022-09-03T22:28:02.266Z,7.78
2022-09-03T22:30:41.667Z,5.82
2022-09-03T22:36:11.868Z,5.07
2022-09-03T22:39:14.791Z,4.93
2022-09-03T22:42:10.179Z,5.45
2022-09-03T22:44:57.675Z,5.63
2022-09-03T22:47:37.642Z,5.70
2022-09-03T22:50:17.254Z,6.05
2022-09-03T22:55:18.611Z,8.00
2022-09-03T22:57:57.624Z,5.70
2022-09-03T23:00:27.752Z,9.32
2022-09-03T23:03:04.912Z,5.53
2022-09-03T23:05:51.530Z,6.15
2022-09-03T23:08:25.793Z,6.50
2022-09-03T23:11:02.852Z,5.57
2022-09-03T23:13:37.862Z,6.88
2022-09-03T23:16:14.604Z,6.80
2022-09-03T23:18:47.857Z,5.57
2022-09-03T23:21:33.306Z,4.93
2022-09-03T23:24:09.505Z,4.40
2022-09-03T23:26:42.589Z,5.03
2022-09-03T23:29:18.034Z,5.25
2022-09-03T23:31:47.634Z,3.95
2022-09-03T23:34:17.381Z,4.18
2022-09-03T23:37:29.583Z,5.32
2022-09-03T23:40:14.983Z,4.05
2022-09-03T23:43:07.212Z,6.15
2022-09-03T23:45:46.218Z,4.28
2022-09-03T23:48:26.777Z,6.45
2022-09-03T23:51:07.654Z,3.20
2022-09-03T23:53:50.454Z,4.28
2022-09-03T23:56:40.671Z,5.07
2022-09-03T23:59:16.647Z,5.63
